Time;durP1;ratioP1;P1;durP2;ratioP2;P2;SDS_P1;SDS_P2;PMS_P1;PMS_P2;Temp;Humidity;BMP_temperature;BMP_pressure;BME280_temperature;BME280_humidity;BME280_pressure;Samples;Min_cycle;Max_cycle;Signal;HPM_P1;HPM_P2
2023/01/05 00:03:55;;;;;;;1999.90;999.90;;;11.90;99.90;;;;;;6651403;88;20204;-77
2023/01/05 00:24:15;;;;;;;1999.90;999.90;;;11.80;99.90;;;;;;6653876;88;20179;-76
2023/01/05 00:34:15;;;;;;;1999.90;999.90;;;11.80;99.90;;;;;;6653792;88;20240;-77
2023/01/05 00:44:16;;;;;;;1999.90;999.90;;;11.90;99.90;;;;;;6657511;88;20292;-77
2023/01/05 00:54:16;;;;;;;1999.90;999.90;;;11.80;99.90;;;;;;6656676;89;20189;-78
2023/01/05 01:04:18;;;;;;;1999.90;999.90;;;11.90;99.90;;;;;;6649392;88;20352;-77
2023/01/05 01:14:19;;;;;;;1999.90;999.90;;;11.90;99.90;;;;;;6640481;88;20221;-76
2023/01/05 01:24:22;;;;;;;1999.90;999.90;;;11.90;99.90;;;;;;6636752;88;20807;-77
2023/01/05 01:34:23;;;;;;;1999.90;999.90;;;11.80;99.90;;;;;;6631187;88;20663;-77
2023/01/05 01:44:46;;;;;;;1999.90;999.90;;;11.90;99.90;;;;;;6644847;88;20213;-76
2023/01/05 01:54:47;;;;;;;1999.90;999.90;;;11.90;99.90;;;;;;6638138;88;20214;-78
2023/01/05 02:04:49;;;;;;;1999.90;999.90;;;11.80;99.90;;;;;;6645772;88;20217;-77
2023/01/05 02:15:06;;;;;;;1999.90;999.90;;;11.90;99.90;;;;;;6655745;88;20192;-77
2023/01/05 02:25:13;;;;;;;1999.90;999.90;;;11.80;99.90;;;;;;6653447;88;20228;-77
2023/01/05 02:35:26;;;;;;;1999.90;999.90;;;11.80;99.90;;;;;;6654241;88;20214;-78
2023/01/05 02:45:27;;;;;;;1999.90;999.90;;;11.90;99.90;;;;;;6653300;88;20227;-77
2023/01/05 02:55:37;;;;;;;1999.90;999.90;;;11.80;99.90;;;;;;6653450;89;20673;-78
2023/01/05 03:05:53;;;;;;;1999.90;999.90;;;11.80;99.90;;;;;;6650140;88;20283;-76
2023/01/05 03:16:00;;;;;;;1999.90;999.90;;;11.80;99.90;;;;;;6658717;88;20184;-76
2023/01/05 03:36:25;;;;;;;1999.90;999.90;;;11.70;99.90;;;;;;6656419;88;20192;-76
2023/01/05 03:46:27;;;;;;;1999.90;999.90;;;11.70;99.90;;;;;;6653723;88;20206;-77
2023/01/05 03:56:27;;;;;;;1999.90;999.90;;;11.60;99.90;;;;;;6651379;89;20318;-77
2023/01/05 04:06:28;;;;;;;1999.90;999.90;;;11.60;99.90;;;;;;6652652;89;20334;-77
2023/01/05 04:16:28;;;;;;;1999.90;999.90;;;11.60;99.90;;;;;;6650002;88;20407;-77
2023/01/05 04:26:29;;;;;;;1999.90;999.90;;;11.60;99.90;;;;;;6670109;88;20237;-78
2023/01/05 04:36:29;;;;;;;1999.90;999.90;;;11.60;99.90;;;;;;6652086;89;20195;-77
2023/01/05 04:46:30;;;;;;;1999.90;999.90;;;11.60;99.90;;;;;;6665547;88;20213;-78
2023/01/05 04:56:31;;;;;;;1999.90;999.90;;;11.60;99.90;;;;;;6654554;89;20344;-76
2023/01/05 05:06:31;;;;;;;1999.90;999.90;;;11.50;99.90;;;;;;6652243;89;20293;-78
2023/01/05 05:16:32;;;;;;;1999.90;999.90;;;11.60;99.90;;;;;;6661496;88;20204;-77
2023/01/05 05:26:32;;;;;;;1999.90;999.90;;;11.60;99.90;;;;;;6661981;88;20623;-77
2023/01/05 05:36:34;;;;;;;1999.90;999.90;;;11.50;99.90;;;;;;6654672;88;20260;-78
2023/01/05 05:46:35;;;;;;;1999.90;999.90;;;11.50;99.90;;;;;;6661158;88;20209;-78
2023/01/05 05:56:35;;;;;;;1999.90;999.90;;;11.60;99.90;;;;;;6655552;88;20207;-77
2023/01/05 06:06:36;;;;;;;1999.90;999.90;;;11.50;99.90;;;;;;6643024;88;20197;-77
2023/01/05 06:16:36;;;;;;;1999.90;999.90;;;11.60;99.90;;;;;;6635168;89;20353;-77
2023/01/05 06:26:37;;;;;;;1999.90;999.90;;;11.60;99.90;;;;;;6639327;88;20215;-78
2023/01/05 06:36:37;;;;;;;1999.90;999.90;;;11.50;99.90;;;;;;6636562;88;20196;-78
2023/01/05 06:46:39;;;;;;;1999.90;999.90;;;11.50;99.90;;;;;;6639412;89;20221;-78
2023/01/05 06:56:40;;;;;;;1999.90;999.90;;;11.50;99.90;;;;;;6639676;89;20190;-77
2023/01/05 07:06:40;;;;;;;1999.90;999.90;;;11.50;99.90;;;;;;6651967;88;20189;-79
2023/01/05 07:16:41;;;;;;;1999.90;999.90;;;11.40;99.90;;;;;;6664827;88;20252;-78
2023/01/05 07:26:41;;;;;;;1999.90;999.90;;;11.40;99.90;;;;;;6652219;88;20213;-78
2023/01/05 07:36:42;;;;;;;1999.90;999.90;;;11.40;99.90;;;;;;6666266;88;20191;-78
2023/01/05 07:46:43;;;;;;;1999.90;999.90;;;11.40;99.90;;;;;;6650542;89;20695;-77
2023/01/05 07:56:43;;;;;;;1999.90;999.90;;;11.40;99.90;;;;;;6667533;88;20222;-78
2023/01/05 08:06:44;;;;;;;1999.90;999.90;;;11.30;99.90;;;;;;6656146;89;20192;-80
2023/01/05 08:16:44;;;;;;;1999.90;999.90;;;11.10;99.90;;;;;;6658026;88;20315;-78
2023/01/05 08:26:44;;;;;;;1999.90;999.90;;;10.90;99.90;;;;;;6660891;89;20241;-78
2023/01/05 08:36:45;;;;;;;1999.90;999.90;;;10.90;99.90;;;;;;6660322;88;20271;-78
2023/01/05 08:46:46;;;;;;;1999.90;999.90;;;11.00;99.90;;;;;;6657194;88;20193;-78
2023/01/05 08:56:49;;;;;;;1999.90;999.90;;;11.10;99.90;;;;;;6659945;89;20511;-79
2023/01/05 09:06:50;;;;;;;1999.90;999.90;;;11.20;99.90;;;;;;6653816;89;20699;-79
2023/01/05 09:16:50;;;;;;;1999.90;999.90;;;11.30;99.90;;;;;;6655870;88;20197;-79
2023/01/05 09:26:51;;;;;;;1999.90;999.90;;;11.40;99.90;;;;;;6665873;88;20329;-78
2023/01/05 09:36:51;;;;;;;1999.90;999.90;;;11.50;99.90;;;;;;6669264;88;20244;-79
2023/01/05 09:46:54;;;;;;;1999.90;999.90;;;11.50;99.90;;;;;;6653365;88;20621;-78
2023/01/05 09:56:58;;;;;;;1999.90;999.90;;;11.60;99.90;;;;;;6652853;89;20211;-79
2023/01/05 10:07:19;;;;;;;1999.90;999.90;;;11.70;99.90;;;;;;6640516;89;20229;-78
2023/01/05 10:17:22;;;;;;;1999.90;999.90;;;11.80;99.90;;;;;;6637745;89;20335;-79
2023/01/05 10:27:28;;;;;;;1999.90;999.90;;;11.90;99.90;;;;;;6636875;89;20197;-79
2023/01/05 10:37:59;;;;;;;1999.90;999.90;;;12.00;99.90;;;;;;6637321;89;20404;-78
2023/01/05 10:47:59;;;;;;;1999.90;999.90;;;12.00;99.90;;;;;;6630198;89;20660;-78
2023/01/05 10:58:00;;;;;;;1999.90;999.90;;;12.40;99.90;;;;;;6629828;89;20181;-78
2023/01/05 11:08:12;;;;;;;1999.90;999.90;;;12.30;99.90;;;;;;6635050;88;20259;-77
2023/01/05 11:18:54;;;;;;;1999.90;999.90;;;12.50;99.90;;;;;;6632466;88;20236;-77
2023/01/05 11:29:07;;;;;;;1999.90;999.90;;;12.80;99.90;;;;;;6630633;89;20201;-78
2023/01/05 11:39:25;;;;;;;1999.90;999.90;;;13.00;99.90;;;;;;6633390;89;20241;-77
2023/01/05 11:49:26;;;;;;;1999.90;999.90;;;13.40;99.90;;;;;;6633191;88;20698;-77
2023/01/05 11:59:29;;;;;;;1999.90;999.90;;;13.10;99.90;;;;;;6634557;88;20251;-78
2023/01/05 12:09:31;;;;;;;1999.90;999.90;;;12.70;99.90;;;;;;6657083;89;20180;-77
2023/01/05 12:19:45;;;;;;;1999.90;999.90;;;12.90;99.90;;;;;;6661924;88;20319;-77
2023/01/05 12:30:15;;;;;;;1999.90;999.90;;;13.10;99.90;;;;;;6658669;89;20290;-77
2023/01/05 12:40:45;;;;;;;1999.90;999.90;;;14.00;99.90;;;;;;6660758;88;20214;-77
2023/01/05 12:50:53;;;;;;;1999.90;999.90;;;13.90;99.90;;;;;;6658857;88;20640;-77
2023/01/05 13:00:56;;;;;;;1999.90;999.90;;;13.60;99.90;;;;;;6660259;88;20318;-77
2023/01/05 13:11:14;;;;;;;1999.90;999.90;;;13.40;99.90;;;;;;6662164;88;20339;-77
2023/01/05 13:21:16;;;;;;;1999.90;999.90;;;13.30;99.90;;;;;;6657563;88;20726;-77
2023/01/05 13:31:29;;;;;;;1999.90;999.90;;;13.50;99.90;;;;;;6654783;88;20799;-77
2023/01/05 13:42:02;;;;;;;1999.90;999.90;;;13.40;99.90;;;;;;6654417;88;20188;-77
2023/01/05 13:52:35;;;;;;;1999.90;999.90;;;13.30;99.90;;;;;;6656149;88;20288;-77
2023/01/05 14:02:45;;;;;;;1999.90;999.90;;;13.20;99.90;;;;;;6675039;88;20298;-77
2023/01/05 14:12:48;;;;;;;1999.90;999.90;;;13.00;99.90;;;;;;6656379;88;20180;-77
2023/01/05 14:22:48;;;;;;;1999.90;999.90;;;12.80;99.90;;;;;;6659296;89;20279;-77
2023/01/05 14:32:53;;;;;;;1999.90;999.90;;;12.70;99.90;;;;;;6653448;88;20307;-76
2023/01/05 14:42:54;;;;;;;1999.90;999.90;;;12.70;99.90;;;;;;6650300;88;20220;-76
2023/01/05 14:53:06;;;;;;;1999.90;999.90;;;12.70;99.90;;;;;;6654116;89;20246;-76
2023/01/05 15:03:14;;;;;;;1999.90;999.90;;;12.60;99.90;;;;;;6652198;88;20526;-76
2023/01/05 15:13:41;;;;;;;1999.90;999.90;;;12.50;99.90;;;;;;6653665;89;20209;-76
2023/01/05 15:24:06;;;;;;;1999.90;999.90;;;12.60;99.90;;;;;;6653431;88;20877;-76
2023/01/05 15:34:20;;;;;;;1999.90;999.90;;;12.40;99.90;;;;;;6653130;89;20218;-76
2023/01/05 15:44:21;;;;;;;1999.90;999.90;;;12.30;99.90;;;;;;6656039;89;20212;-76
2023/01/05 15:54:28;;;;;;;1999.90;999.90;;;12.20;99.90;;;;;;6672888;88;20557;-77
2023/01/05 16:04:29;;;;;;;1999.90;999.90;;;12.00;99.90;;;;;;6659069;88;20232;-77
2023/01/05 16:14:38;;;;;;;1999.90;999.90;;;11.60;99.90;;;;;;6666347;88;20246;-76
2023/01/05 16:25:01;;;;;;;1999.90;999.90;;;11.40;99.90;;;;;;6659115;88;20291;-77
2023/01/05 16:35:20;;;;;;;1999.90;999.90;;;11.10;99.90;;;;;;6673895;88;20208;-77
2023/01/05 16:45:26;;;;;;;1999.90;999.90;;;10.80;99.90;;;;;;6647663;88;20224;-77
2023/01/05 16:55:35;;;;;;;1999.90;999.90;;;10.70;99.90;;;;;;6649368;88;20192;-77
2023/01/05 17:05:35;;;;;;;1999.90;999.90;;;10.70;99.90;;;;;;6649975;89;20242;-76
2023/01/05 17:15:36;;;;;;;1999.90;999.90;;;10.70;99.90;;;;;;6663563;88;20794;-76
2023/01/05 17:25:36;;;;;;;1999.90;999.90;;;10.60;99.90;;;;;;6658435;89;20873;-76
2023/01/05 17:35:37;;;;;;;1999.90;999.90;;;10.50;99.90;;;;;;6655468;89;20229;-76
2023/01/05 17:45:40;;;;;;;1999.90;999.90;;;10.50;99.90;;;;;;6650800;88;20198;-76
2023/01/05 17:55:43;;;;;;;1999.90;999.90;;;10.50;99.90;;;;;;6645852;88;20665;-76
2023/01/05 18:05:43;;;;;;;1999.90;999.90;;;10.40;99.90;;;;;;6654348;88;20180;-78
2023/01/05 18:15:46;;;;;;;1999.90;999.90;;;10.50;99.90;;;;;;6656524;88;20216;-76
2023/01/05 18:25:46;;;;;;;1999.90;999.90;;;10.50;99.90;;;;;;6655483;88;20229;-79
2023/01/05 18:35:47;;;;;;;1999.90;999.90;;;10.50;99.90;;;;;;6655740;88;20192;-77
2023/01/05 18:45:54;;;;;;;1999.90;999.90;;;10.60;99.90;;;;;;6669836;88;20202;-77
2023/01/05 18:55:54;;;;;;;1999.90;999.90;;;10.70;99.90;;;;;;6657445;88;20700;-78
2023/01/05 19:05:55;;;;;;;1999.90;999.90;;;10.80;99.90;;;;;;6656630;88;20664;-78
2023/01/05 19:15:59;;;;;;;1999.90;999.90;;;11.00;99.90;;;;;;6661283;88;20210;-77
2023/01/05 19:26:02;;;;;;;1999.90;999.90;;;10.80;99.90;;;;;;6659092;88;20227;-77
2023/01/05 19:36:06;;;;;;;1999.90;999.90;;;10.80;99.90;;;;;;6661106;88;20220;-78
2023/01/05 19:46:11;;;;;;;1999.90;999.90;;;10.70;99.90;;;;;;6663983;88;20229;-78
2023/01/05 19:56:14;;;;;;;1999.90;999.90;;;10.60;99.90;;;;;;6668052;88;20194;-78
2023/01/05 20:06:25;;;;;;;1999.90;999.90;;;10.50;99.90;;;;;;6649750;88;20190;-78
2023/01/05 20:16:25;;;;;;;1999.90;999.90;;;10.40;99.90;;;;;;6650297;88;20809;-77
2023/01/05 20:26:28;;;;;;;1999.90;999.90;;;10.40;99.90;;;;;;6646534;88;20193;-77
2023/01/05 20:36:30;;;;;;;1999.90;999.90;;;10.40;99.90;;;;;;6647781;88;20238;-77
2023/01/05 20:46:33;;;;;;;1999.90;999.90;;;10.40;99.90;;;;;;6654036;88;20310;-77
2023/01/05 20:56:37;;;;;;;1999.90;999.90;;;10.20;99.90;;;;;;6655525;88;20254;-77
2023/01/05 21:06:38;;;;;;;1999.90;999.90;;;10.20;99.90;;;;;;6674625;88;20203;-77
2023/01/05 21:16:42;;;;;;;1999.90;999.90;;;10.30;99.90;;;;;;6656338;88;20208;-78
2023/01/05 21:26:43;;;;;;;1999.90;999.90;;;10.30;99.90;;;;;;6658730;88;20312;-78
2023/01/05 21:36:44;;;;;;;1999.90;999.90;;;10.20;99.90;;;;;;6656419;88;20239;-78
2023/01/05 21:46:46;;;;;;;1999.90;999.90;;;10.20;99.90;;;;;;6668896;88;20205;-78
2023/01/05 21:56:47;;;;;;;1999.90;999.90;;;10.20;99.90;;;;;;6661914;88;20692;-78
2023/01/05 22:06:48;;;;;;;1999.90;999.90;;;10.20;99.90;;;;;;6642052;88;20198;-78
2023/01/05 22:16:49;;;;;;;1999.90;999.90;;;10.20;99.90;;;;;;6645870;88;20245;-78
2023/01/05 22:26:50;;;;;;;1999.90;999.90;;;10.40;99.90;;;;;;6645938;88;20228;-77
2023/01/05 22:36:50;;;;;;;1999.90;999.90;;;10.50;99.90;;;;;;6645429;88;20243;-78
2023/01/05 22:46:51;;;;;;;1999.90;999.90;;;10.70;99.90;;;;;;6656969;88;20705;-77
2023/01/05 22:56:51;;;;;;;1999.90;999.90;;;10.50;99.90;;;;;;6644834;88;20206;-77
2023/01/05 23:06:52;;;;;;;1999.90;999.90;;;10.50;99.90;;;;;;6654002;88;20192;-78
2023/01/05 23:16:52;;;;;;;1999.90;999.90;;;10.40;99.90;;;;;;6660886;88;20366;-78
2023/01/05 23:26:53;;;;;;;1999.90;999.90;;;10.60;99.90;;;;;;6666658;88;20224;-77
2023/01/05 23:36:53;;;;;;;1999.90;999.90;;;10.40;99.90;;;;;;6681615;88;20187;-78
2023/01/05 23:46:54;;;;;;;1999.90;999.90;;;10.60;99.90;;;;;;6661223;88;20344;-78
2023/01/05 23:56:54;;;;;;;1999.90;999.90;;;10.60;99.90;;;;;;6669439;88;20200;-78
